Time;durP1;ratioP1;P1;durP2;ratioP2;P2;SDS_P1;SDS_P2;PMS_P1;PMS_P2;Temp;Humidity;BMP_temperature;BMP_pressure;BME280_temperature;BME280_humidity;BME280_pressure;Samples;Min_cycle;Max_cycle;Signal;HPM_P1;HPM_P2
2022/02/03 00:00:53;;;;;;;7.30;4.30;;;8.90;99.90;;;;;;4907583;29;20084;-79
2022/02/03 00:03:21;;;;;;;7.88;4.30;;;8.90;99.90;;;;;;4894474;29;20035;-79
2022/02/03 00:05:56;;;;;;;7.03;3.97;;;8.90;99.90;;;;;;4910360;29;20040;-79
2022/02/03 00:08:48;;;;;;;7.90;4.30;;;8.90;99.90;;;;;;4891711;29;20028;-80
2022/02/03 00:22:01;;;;;;;6.47;3.78;;;8.80;99.90;;;;;;4908024;29;20434;-80
2022/02/03 00:22:36;;;;;;;8.70;3.95;;;8.90;99.90;;;;;;4907697;29;20034;-78
2022/02/03 00:25:14;;;;;;;7.18;4.38;;;8.90;99.90;;;;;;4910483;29;20111;-78
2022/02/03 00:30:30;;;;;;;8.23;4.47;;;8.90;99.90;;;;;;4911549;29;20499;-77
2022/02/03 00:35:44;;;;;;;6.03;3.80;;;8.80;99.90;;;;;;4919923;29;20508;-79
2022/02/03 00:51:23;;;;;;;7.78;4.03;;;8.80;99.90;;;;;;4918395;29;20028;-78
2022/02/03 00:53:49;;;;;;;6.40;3.97;;;8.80;99.90;;;;;;4901610;29;20540;-78
2022/02/03 00:56:25;;;;;;;7.03;4.07;;;8.80;99.90;;;;;;4918640;29;20103;-78
2022/02/03 00:58:53;;;;;;;5.95;3.53;;;8.80;99.90;;;;;;4918968;29;20063;-78
2022/02/03 01:01:22;;;;;;;6.03;4.10;;;8.80;99.90;;;;;;4918520;29;20056;-78
2022/02/03 01:03:51;;;;;;;7.00;3.65;;;8.80;99.90;;;;;;4918817;29;20076;-78
2022/02/03 01:06:19;;;;;;;6.97;3.55;;;8.80;99.90;;;;;;4918000;29;20111;-78
2022/02/03 01:08:47;;;;;;;5.88;3.78;;;8.80;99.90;;;;;;4902011;29;20036;-79
2022/02/03 01:11:24;;;;;;;7.28;3.55;;;8.80;99.90;;;;;;4918344;29;20032;-79
2022/02/03 01:20:09;;;;;;;5.72;3.38;;;8.80;99.90;;;;;;4918111;29;20067;-80
2022/02/03 01:43:48;;;;;;;7.93;3.63;;;8.70;99.90;;;;;;4918419;29;20397;-79
2022/02/03 01:46:19;;;;;;;7.05;3.72;;;8.70;99.90;;;;;;4917824;29;20030;-79
2022/02/03 01:54:04;;;;;;;6.18;3.67;;;8.70;99.90;;;;;;4917641;29;20066;-84
2022/02/03 01:56:41;;;;;;;7.30;4.13;;;8.70;99.90;;;;;;4900886;29;20378;-79
2022/02/03 01:59:28;;;;;;;5.55;3.67;;;8.70;99.90;;;;;;4900836;29;20123;-80
2022/02/03 02:02:02;;;;;;;6.55;3.50;;;8.70;99.90;;;;;;4901105;29;20462;-79
2022/02/03 02:04:28;;;;;;;6.88;3.72;;;8.70;99.90;;;;;;4917763;29;20103;-79
2022/02/03 02:07:05;;;;;;;6.07;3.58;;;8.70;99.90;;;;;;4918024;29;20466;-79
2022/02/03 02:09:47;;;;;;;5.18;3.35;;;8.70;99.90;;;;;;4901245;29;20038;-79
2022/02/03 02:12:41;;;;;;;4.60;3.13;;;8.70;99.90;;;;;;4900658;29;20124;-79
2022/02/03 02:18:16;;;;;;;6.68;3.28;;;8.70;99.90;;;;;;4917431;29;20043;-79
2022/02/03 02:42:56;;;;;;;6.07;3.20;;;8.90;99.90;;;;;;4917555;29;20036;-78
2022/02/03 02:45:42;;;;;;;6.05;3.00;;;8.90;99.90;;;;;;4899975;29;20095;-78
2022/02/03 02:48:40;;;;;;;4.68;2.90;;;8.90;99.90;;;;;;4899887;29;20032;-78
2022/02/03 02:51:14;;;;;;;4.57;3.10;;;8.80;99.90;;;;;;4904846;29;20044;-78
2022/02/03 02:54:17;;;;;;;5.65;3.42;;;8.80;99.90;;;;;;4900200;29;20036;-78
2022/02/03 03:00:20;;;;;;;5.78;3.55;;;8.80;99.90;;;;;;4916532;29;20144;-78
2022/02/03 03:30:29;;;;;;;8.13;4.40;;;8.80;99.90;;;;;;4916391;29;20042;-79
2022/02/03 03:33:19;;;;;;;6.78;4.15;;;8.80;99.90;;;;;;4899956;29;20470;-78
2022/02/03 03:35:50;;;;;;;7.20;4.25;;;8.80;99.90;;;;;;4916659;29;20076;-78
2022/02/03 03:38:21;;;;;;;7.15;3.92;;;8.80;99.90;;;;;;4895856;29;20056;-78
2022/02/03 03:40:50;;;;;;;7.18;4.45;;;8.80;99.90;;;;;;4896880;29;20032;-79
2022/02/03 03:43:38;;;;;;;8.18;4.22;;;8.80;99.90;;;;;;4896342;29;20073;-78
2022/02/03 03:46:18;;;;;;;7.95;4.53;;;8.80;99.90;;;;;;4896907;29;20044;-79
2022/02/03 03:49:12;;;;;;;5.82;3.83;;;8.70;99.90;;;;;;4896931;29;20032;-79
2022/02/03 03:51:56;;;;;;;8.23;4.40;;;8.80;99.90;;;;;;4874442;29;20096;-79
2022/02/03 04:00:27;;;;;;;7.38;4.05;;;8.70;99.90;;;;;;4901321;29;20071;-78
2022/02/03 04:30:46;;;;;;;9.25;4.53;;;8.70;99.90;;;;;;4899866;29;20501;-78
2022/02/03 05:03:04;;;;;;;12.15;4.82;;;8.60;99.90;;;;;;4919156;29;20071;-79
2022/02/03 05:46:47;;;;;;;9.18;5.25;;;8.40;99.90;;;;;;4917851;29;20043;-79
2022/02/03 06:08:14;;;;;;;9.23;5.15;;;8.30;99.90;;;;;;4918073;29;20040;-79
2022/02/03 06:13:41;;;;;;;9.02;5.00;;;8.30;99.90;;;;;;4916887;29;20513;-78
2022/02/03 06:24:29;;;;;;;8.88;4.68;;;8.30;99.90;;;;;;4913849;29;20474;-77
2022/02/03 06:29:47;;;;;;;9.85;4.90;;;8.30;99.90;;;;;;4917196;29;20441;-77
2022/02/03 06:32:12;;;;;;;9.20;5.25;;;8.20;99.90;;;;;;4917693;29;20414;-78
2022/02/03 06:34:38;;;;;;;11.75;6.18;;;8.20;99.90;;;;;;4900244;29;20466;-78
2022/02/03 06:37:04;;;;;;;10.15;5.22;;;8.20;99.90;;;;;;4900455;29;20059;-79
2022/02/03 06:39:30;;;;;;;11.23;5.53;;;8.20;99.90;;;;;;4900242;29;20032;-78
2022/02/03 06:42:00;;;;;;;10.48;5.45;;;8.20;99.90;;;;;;4902130;29;20462;-78
2022/02/03 06:44:34;;;;;;;10.70;5.40;;;8.20;99.90;;;;;;4901378;29;20024;-78
2022/02/03 06:47:11;;;;;;;11.35;6.47;;;8.20;99.90;;;;;;4900943;29;20501;-78
2022/02/03 06:52:12;;;;;;;12.90;6.35;;;8.10;99.90;;;;;;4917169;29;20480;-78
2022/02/03 06:57:36;;;;;;;12.23;5.90;;;8.10;99.90;;;;;;4917064;29;20038;-79
2022/02/03 07:00:07;;;;;;;9.52;5.43;;;8.10;99.90;;;;;;4900624;29;20179;-78
2022/02/03 07:02:38;;;;;;;13.43;6.13;;;8.10;99.90;;;;;;4917115;29;20024;-77
2022/02/03 07:05:05;;;;;;;13.88;6.13;;;8.10;99.90;;;;;;4900410;29;20039;-78
2022/02/03 07:07:30;;;;;;;10.30;5.78;;;8.10;99.90;;;;;;4899839;29;20047;-78
2022/02/03 07:09:56;;;;;;;11.32;6.50;;;8.10;99.90;;;;;;4900105;29;20087;-77
2022/02/03 07:12:22;;;;;;;10.73;6.00;;;8.10;99.90;;;;;;4899899;29;20091;-78
2022/02/03 07:14:49;;;;;;;10.82;5.65;;;8.20;99.90;;;;;;4917222;29;20038;-78
2022/02/03 07:17:14;;;;;;;14.20;7.30;;;8.20;99.90;;;;;;4900624;29;20088;-78
2022/02/03 07:19:46;;;;;;;15.88;6.95;;;8.20;99.90;;;;;;4900137;29;20036;-78
2022/02/03 07:22:12;;;;;;;10.73;6.18;;;8.20;99.90;;;;;;4917337;29;20083;-78
2022/02/03 07:24:38;;;;;;;13.10;6.07;;;8.20;99.90;;;;;;4899838;29;20482;-78
2022/02/03 07:27:04;;;;;;;12.00;6.35;;;8.30;99.90;;;;;;4903204;29;20564;-77
2022/02/03 07:29:29;;;;;;;10.55;5.78;;;8.30;99.90;;;;;;4903501;29;20071;-78
2022/02/03 07:31:55;;;;;;;9.05;5.45;;;8.30;99.90;;;;;;4903868;29;20028;-78
2022/02/03 07:34:21;;;;;;;12.98;6.32;;;8.30;99.90;;;;;;4920676;29;20481;-79
2022/02/03 07:36:47;;;;;;;12.23;6.30;;;8.30;99.90;;;;;;4920193;29;20103;-78
2022/02/03 07:39:13;;;;;;;11.10;5.88;;;8.30;99.90;;;;;;4903649;29;20064;-78
2022/02/03 07:41:40;;;;;;;13.40;7.30;;;8.30;99.90;;;;;;4902872;29;20362;-78
2022/02/03 07:44:07;;;;;;;14.63;6.72;;;8.30;99.90;;;;;;4903216;29;20028;-78
2022/02/03 07:46:32;;;;;;;11.63;6.38;;;8.30;99.90;;;;;;4919809;29;20053;-78
2022/02/03 07:48:58;;;;;;;13.23;6.53;;;8.40;99.90;;;;;;4903418;29;20029;-78
2022/02/03 07:51:24;;;;;;;13.57;6.55;;;8.40;99.90;;;;;;4919522;29;20043;-77
2022/02/03 07:53:50;;;;;;;12.18;6.72;;;8.40;99.90;;;;;;4900218;29;20084;-78
2022/02/03 07:56:16;;;;;;;9.98;6.00;;;8.40;99.90;;;;;;4900054;29;20028;-79
2022/02/03 07:58:41;;;;;;;10.73;5.65;;;8.50;99.90;;;;;;4898924;29;20032;-78
2022/02/03 08:01:07;;;;;;;12.43;5.60;;;8.50;99.90;;;;;;4884710;29;20431;-78
2022/02/03 08:03:33;;;;;;;10.52;5.80;;;8.50;99.90;;;;;;4884242;29;20127;-79
2022/02/03 08:06:04;;;;;;;10.93;5.95;;;8.60;99.90;;;;;;4901292;29;20067;-80
2022/02/03 08:08:35;;;;;;;9.05;5.45;;;8.60;99.90;;;;;;4884281;29;20036;-80
2022/02/03 08:11:06;;;;;;;8.88;5.70;;;8.60;99.90;;;;;;4884556;29;20033;-78
2022/02/03 08:13:40;;;;;;;9.50;5.30;;;8.60;99.90;;;;;;4883838;29;20088;-79
2022/02/03 08:16:14;;;;;;;8.82;5.47;;;8.60;99.90;;;;;;4884592;29;20028;-78
2022/02/03 08:18:42;;;;;;;9.18;5.63;;;8.60;99.90;;;;;;4883610;29;20131;-78
2022/02/03 08:21:11;;;;;;;11.38;6.00;;;8.70;99.90;;;;;;4884100;29;20040;-79
2022/02/03 08:23:57;;;;;;;10.20;5.85;;;8.70;99.90;;;;;;4883956;29;20028;-79
2022/02/03 08:26:42;;;;;;;7.85;4.90;;;8.70;99.90;;;;;;4901298;29;20060;-79
2022/02/03 08:31:52;;;;;;;8.70;4.60;;;8.70;99.90;;;;;;4911094;29;20036;-78
2022/02/03 08:34:32;;;;;;;8.98;4.50;;;8.70;99.90;;;;;;4902729;29;20043;-78
2022/02/03 08:36:59;;;;;;;7.40;4.82;;;8.70;99.90;;;;;;4902017;29;20068;-78
2022/02/03 08:39:26;;;;;;;7.80;4.30;;;8.70;99.90;;;;;;4902083;29;20123;-84
2022/02/03 08:41:51;;;;;;;9.25;4.50;;;8.70;99.90;;;;;;4902311;29;20492;-78
2022/02/03 08:44:17;;;;;;;7.45;4.50;;;8.80;99.90;;;;;;4902743;29;20032;-78
2022/02/03 08:46:43;;;;;;;8.00;4.45;;;8.80;99.90;;;;;;4902107;29;20028;-78
2022/02/03 08:49:09;;;;;;;7.05;4.30;;;8.80;99.90;;;;;;4902585;29;20032;-78
2022/02/03 08:51:35;;;;;;;6.60;4.47;;;8.80;99.90;;;;;;4918551;29;20058;-79
2022/02/03 08:54:09;;;;;;;7.13;4.38;;;8.80;99.90;;;;;;4902598;29;20134;-79
2022/02/03 09:30:16;;;;;;;7.32;4.10;;;9.20;99.90;;;;;;4895142;29;20301;-78
2022/02/03 09:50:10;;;;;;;7.40;3.78;;;9.20;99.90;;;;;;4903323;29;20127;-79
2022/02/03 09:53:38;;;;;;;7.07;3.53;;;9.40;99.90;;;;;;4903927;29;20032;-77
2022/02/03 09:59:04;;;;;;;4.75;3.20;;;9.40;99.90;;;;;;4916868;29;20060;-78
2022/02/03 10:01:35;;;;;;;5.28;2.92;;;9.50;99.90;;;;;;4900403;29;20032;-79
2022/02/03 10:04:14;;;;;;;5.82;3.53;;;9.50;99.90;;;;;;4900430;29;20036;-78
2022/02/03 10:06:57;;;;;;;4.72;2.95;;;9.60;99.90;;;;;;4902175;29;20099;-79
2022/02/03 10:09:56;;;;;;;5.32;2.92;;;9.60;99.90;;;;;;4884692;29;20032;-79
2022/02/03 10:12:39;;;;;;;5.78;3.20;;;9.60;99.90;;;;;;4886294;29;20043;-79
2022/02/03 10:15:07;;;;;;;5.20;3.25;;;9.60;99.90;;;;;;4900944;29;20066;-79
2022/02/03 10:17:34;;;;;;;5.13;2.75;;;9.70;99.90;;;;;;4900318;29;20040;-79
2022/02/03 10:20:04;;;;;;;4.82;3.03;;;9.70;99.90;;;;;;4900904;29;20028;-80
2022/02/03 10:22:30;;;;;;;3.70;2.55;;;9.70;99.90;;;;;;4901195;29;20028;-84
2022/02/03 10:25:10;;;;;;;3.97;2.53;;;9.70;99.90;;;;;;4917492;29;20091;-79
2022/02/03 10:27:39;;;;;;;4.50;2.28;;;9.70;99.90;;;;;;4900614;29;20035;-79
2022/02/03 10:30:32;;;;;;;4.00;2.55;;;9.70;99.90;;;;;;4900946;29;20462;-80
2022/02/03 10:32:58;;;;;;;3.80;2.38;;;9.70;99.90;;;;;;4900820;29;20035;-80
2022/02/03 10:35:31;;;;;;;3.80;2.33;;;9.70;99.90;;;;;;4900733;29;20040;-81
2022/02/03 10:38:33;;;;;;;3.58;2.30;;;9.80;99.90;;;;;;4888456;29;20082;-79
2022/02/03 10:46:37;;;;;;;5.35;2.30;;;9.90;99.90;;;;;;4917981;29;20028;-80
2022/02/03 11:02:47;;;;;;;43.63;22.20;;;10.00;99.90;;;;;;4920676;29;20099;-78
2022/02/03 11:12:53;;;;;;;2.92;1.90;;;10.00;99.90;;;;;;4922048;29;20545;-81
2022/02/03 11:15:27;;;;;;;3.50;2.33;;;10.10;99.90;;;;;;4904024;29;20095;-81
2022/02/03 11:17:58;;;;;;;4.90;2.05;;;10.10;99.90;;;;;;4917227;29;20118;-81
2022/02/03 11:20:26;;;;;;;3.20;2.22;;;10.10;99.90;;;;;;4903850;29;20028;-80
2022/02/03 11:23:06;;;;;;;3.60;2.00;;;10.10;99.90;;;;;;4903171;29;20064;-79
2022/02/03 11:26:05;;;;;;;4.03;1.75;;;10.10;99.90;;;;;;4903622;29;20039;-78
2022/02/03 11:31:23;;;;;;;3.45;1.67;;;10.20;99.90;;;;;;4911270;29;20034;-80
2022/02/03 11:44:57;;;;;;;2.28;1.40;;;10.40;99.90;;;;;;4901301;29;20482;-78
2022/02/03 12:17:51;;;;;;;2.67;1.50;;;10.60;99.90;;;;;;4916536;29;20040;-81
2022/02/03 12:20:31;;;;;;;1.58;0.90;;;10.70;99.90;;;;;;4903196;29;20027;-81
2022/02/03 12:25:45;;;;;;;1.48;1.05;;;10.70;99.90;;;;;;4919468;29;20032;-83
2022/02/03 12:38:48;;;;;;;2.00;0.90;;;10.90;99.90;;;;;;4911562;29;20063;-87
2022/02/03 12:41:35;;;;;;;1.13;0.90;;;10.90;99.90;;;;;;4901569;29;20043;-84
2022/02/03 12:44:05;;;;;;;4.72;1.08;;;11.10;99.90;;;;;;4902172;29;20828;-81
2022/02/03 12:46:31;;;;;;;2.97;1.00;;;11.00;99.90;;;;;;4901075;29;20039;-84
2022/02/03 12:48:59;;;;;;;3.80;0.93;;;11.00;99.90;;;;;;4901629;29;20056;-83
2022/02/03 12:51:25;;;;;;;1.40;0.80;;;10.90;99.90;;;;;;4902309;29;20470;-83
2022/02/03 12:53:52;;;;;;;2.47;1.10;;;10.80;99.90;;;;;;4900558;29;20039;-82
2022/02/03 12:56:23;;;;;;;1.02;0.73;;;10.80;99.90;;;;;;4894840;29;20025;-81
2022/02/03 12:58:56;;;;;;;1.88;1.08;;;10.80;99.90;;;;;;4901588;29;20032;-83
2022/02/03 13:01:29;;;;;;;2.75;1.02;;;10.80;99.90;;;;;;4913052;29;20116;-81
2022/02/03 13:03:55;;;;;;;3.22;1.35;;;10.80;99.90;;;;;;4901963;29;20028;-80
2022/02/03 13:06:26;;;;;;;1.42;0.90;;;10.70;99.90;;;;;;4901738;29;20039;-83
2022/02/03 13:08:54;;;;;;;1.58;0.90;;;10.70;99.90;;;;;;4902002;29;20041;-84
2022/02/03 13:11:51;;;;;;;0.80;0.75;;;10.70;99.90;;;;;;4899128;29;20033;-82
2022/02/03 13:17:00;;;;;;;1.23;0.85;;;10.60;99.90;;;;;;4909330;29;20121;-84
2022/02/03 13:19:38;;;;;;;2.40;0.93;;;10.60;99.90;;;;;;4902091;29;20079;-79
2022/02/03 13:22:32;;;;;;;1.00;0.80;;;10.60;99.90;;;;;;4900769;29;20044;-80
2022/02/03 13:27:48;;;;;;;1.50;1.10;;;10.50;99.90;;;;;;4918385;29;20028;-79
2022/02/03 13:31:01;;;;;;;;;;;;;;;;;;;;;
2022/02/03 13:33:16;;;;;;;0.82;0.70;;;10.50;99.90;;;;;;4918616;29;20054;-80
2022/02/03 13:36:27;;;;;;;2.30;0.90;;;10.60;99.90;;;;;;4901053;29;20047;-82
2022/02/03 13:38:40;;;;;;;2.45;1.20;;;10.60;99.90;;;;;;4917674;29;20072;-81
2022/02/03 13:41:25;;;;;;;2.05;0.90;;;10.60;99.90;;;;;;4901899;29;20092;-81
2022/02/03 13:43:51;;;;;;;2.13;1.23;;;10.70;99.90;;;;;;4900972;29;20024;-81
2022/02/03 13:46:39;;;;;;;1.73;1.00;;;10.70;99.90;;;;;;4901128;29;20039;-80
2022/02/03 13:49:16;;;;;;;2.28;1.35;;;10.70;99.90;;;;;;4900675;29;20046;-80
2022/02/03 13:51:44;;;;;;;1.52;1.05;;;10.60;99.90;;;;;;4900879;29;20036;-81
2022/02/03 13:54:55;;;;;;;2.50;1.67;;;10.60;99.90;;;;;;4901146;29;20076;-81
2022/02/03 14:19:52;;;;;;;2.35;1.30;;;10.60;99.90;;;;;;4974040;28;20066;-77
2022/02/03 14:22:25;;;;;;;2.10;1.02;;;10.60;99.90;;;;;;4937390;29;20031;-77
2022/02/03 14:27:35;;;;;;;1.75;1.23;;;10.40;99.90;;;;;;4973755;28;20049;-77
2022/02/03 14:30:04;;;;;;;1.83;1.20;;;10.40;99.90;;;;;;4972550;28;20035;-78
2022/02/03 14:32:36;;;;;;;2.75;1.38;;;10.40;99.90;;;;;;4944278;28;20041;-78
2022/02/03 14:35:05;;;;;;;1.70;1.23;;;10.40;99.90;;;;;;4956510;28;20039;-78
2022/02/03 14:42:37;;;;;;;2.55;1.52;;;10.20;99.90;;;;;;4974625;28;20039;-78
2022/02/03 14:45:05;;;;;;;1.80;1.50;;;10.20;99.90;;;;;;4956768;28;20081;-78
2022/02/03 14:47:32;;;;;;;2.85;1.60;;;10.20;99.90;;;;;;4974726;28;20027;-77
2022/02/03 14:50:01;;;;;;;3.33;1.40;;;10.30;99.90;;;;;;4948857;28;20103;-79
2022/02/03 14:52:33;;;;;;;2.17;1.35;;;10.20;99.90;;;;;;4956693;28;20031;-77
2022/02/03 15:00:28;;;;;;;4.38;2.00;;;10.10;99.90;;;;;;4973700;28;20499;-77
2022/02/03 15:02:55;;;;;;;1.98;1.77;;;10.10;99.90;;;;;;4957600;28;20047;-77
2022/02/03 15:05:31;;;;;;;3.05;2.10;;;10.10;99.90;;;;;;4963295;28;20027;-76
2022/02/03 15:07:59;;;;;;;1.48;1.23;;;10.00;99.90;;;;;;4960556;28;20039;-78
2022/02/03 15:15:27;;;;;;;1.52;1.10;;;10.00;99.90;;;;;;4954719;28;20027;-76
2022/02/03 15:17:53;;;;;;;2.00;1.35;;;10.00;99.90;;;;;;4955798;28;20043;-76
2022/02/03 15:20:19;;;;;;;1.40;0.95;;;10.00;99.90;;;;;;4954342;28;20131;-77
2022/02/03 15:22:44;;;;;;;2.25;1.13;;;10.00;99.90;;;;;;4978563;28;20042;-76
2022/02/03 15:25:11;;;;;;;1.88;0.70;;;10.00;99.90;;;;;;4969407;28;20047;-76
2022/02/03 15:27:38;;;;;;;2.00;0.80;;;9.90;99.90;;;;;;4968987;28;20125;-79
2022/02/03 15:30:04;;;;;;;1.77;0.90;;;9.90;99.90;;;;;;4952377;28;20122;-77
2022/02/03 15:32:39;;;;;;;1.75;0.90;;;9.80;99.90;;;;;;4953339;28;20042;-79
2022/02/03 15:35:16;;;;;;;0.98;0.60;;;9.70;99.90;;;;;;4953617;28;20031;-76
2022/02/03 15:37:47;;;;;;;1.75;0.63;;;9.70;99.90;;;;;;4954116;28;20035;-76
2022/02/03 15:40:18;;;;;;;1.45;0.65;;;9.70;99.90;;;;;;4964618;28;20126;-76
2022/02/03 15:42:52;;;;;;;2.65;1.30;;;9.60;99.90;;;;;;4945051;28;20560;-76
2022/02/03 15:45:18;;;;;;;4.97;1.23;;;9.60;99.90;;;;;;4953978;28;20070;-78
2022/02/03 15:47:49;;;;;;;1.10;0.80;;;9.60;99.90;;;;;;4955313;28;20035;-79
2022/02/03 16:17:07;;;;;;;1.45;0.70;;;9.20;99.90;;;;;;4977070;28;20023;-76
2022/02/03 16:19:44;;;;;;;1.58;0.90;;;9.20;99.90;;;;;;4960084;28;20035;-77
2022/02/03 16:22:42;;;;;;;2.08;0.90;;;9.20;99.90;;;;;;4958988;28;20034;-77
2022/02/03 16:25:22;;;;;;;2.20;0.93;;;9.20;99.90;;;;;;4972746;28;20035;-77
2022/02/03 16:52:38;;;;;;;3.47;1.30;;;9.10;99.90;;;;;;4975411;28;20089;-77
2022/02/03 16:55:09;;;;;;;2.78;1.45;;;9.10;99.90;;;;;;4958309;28;20042;-78
2022/02/03 16:57:35;;;;;;;2.20;1.50;;;9.10;99.90;;;;;;4959104;28;20498;-77
2022/02/03 17:00:06;;;;;;;2.03;1.25;;;9.10;99.90;;;;;;4976121;28;20023;-78
2022/02/03 17:02:32;;;;;;;1.92;1.20;;;9.10;99.90;;;;;;4959083;28;20507;-77
2022/02/03 17:04:58;;;;;;;2.28;1.10;;;9.00;99.90;;;;;;4958100;28;20061;-77
2022/02/03 17:07:27;;;;;;;2.25;1.70;;;9.10;99.90;;;;;;4958546;28;20038;-77
2022/02/03 17:09:55;;;;;;;3.55;1.60;;;9.10;99.90;;;;;;4958552;28;20034;-77
2022/02/03 17:12:20;;;;;;;1.83;1.50;;;9.10;99.90;;;;;;4976218;28;20049;-78
2022/02/03 17:14:46;;;;;;;2.55;1.67;;;9.10;99.90;;;;;;4958627;28;20118;-81
2022/02/03 17:17:13;;;;;;;2.47;1.60;;;9.10;99.90;;;;;;4958788;28;20464;-79
2022/02/03 17:19:39;;;;;;;3.30;1.70;;;9.10;99.90;;;;;;4959334;28;20027;-77
2022/02/03 17:22:08;;;;;;;2.40;1.70;;;9.10;99.90;;;;;;4958701;28;20027;-78
2022/02/03 17:24:35;;;;;;;3.40;1.85;;;9.20;99.90;;;;;;4958584;28;20026;-78
2022/02/03 17:27:18;;;;;;;5.70;1.80;;;9.20;99.90;;;;;;4957924;28;20058;-77
2022/02/03 18:10:52;;;;;;;2.70;1.67;;;9.10;99.90;;;;;;4973811;28;20507;-78
2022/02/03 18:35:31;;;;;;;3.60;1.50;;;9.00;99.90;;;;;;4973972;28;20121;-81
2022/02/03 18:49:46;;;;;;;2.85;1.40;;;9.00;99.90;;;;;;4973997;28;20384;-78
2022/02/03 18:54:27;;;;;;;3.25;1.52;;;9.00;99.90;;;;;;4973766;28;20058;-79
2022/02/03 18:57:01;;;;;;;2.53;1.50;;;9.00;99.90;;;;;;4956907;28;20027;-78
2022/02/03 19:11:01;;;;;;;4.68;1.70;;;9.00;99.90;;;;;;4968818;28;20042;-78
2022/02/03 19:26:55;;;;;;;5.40;2.10;;;9.00;99.90;;;;;;4976997;28;20533;-78
2022/02/03 20:10:06;;;;;;;4.55;2.42;;;8.90;99.90;;;;;;4950011;28;20387;-82
2022/02/03 20:12:31;;;;;;;4.60;2.70;;;8.90;99.90;;;;;;4957646;28;20033;-78
2022/02/03 20:14:58;;;;;;;4.03;2.90;;;8.80;99.90;;;;;;4958630;28;20031;-78
2022/02/03 20:17:27;;;;;;;5.18;2.72;;;8.80;99.90;;;;;;4959106;28;20023;-78
2022/02/03 20:19:53;;;;;;;4.82;2.60;;;8.80;99.90;;;;;;4959039;28;20077;-80
2022/02/03 20:22:19;;;;;;;4.80;2.42;;;8.80;99.90;;;;;;4976486;28;20460;-78
2022/02/03 20:24:46;;;;;;;7.90;3.13;;;8.80;99.90;;;;;;4963787;28;20031;-83
2022/02/03 20:27:14;;;;;;;4.97;2.80;;;8.70;99.90;;;;;;4959152;28;20030;-79
2022/02/03 20:29:40;;;;;;;4.43;2.83;;;8.70;99.90;;;;;;4976051;28;20118;-79
2022/02/03 20:32:06;;;;;;;4.97;2.83;;;8.70;99.90;;;;;;4975263;28;20409;-78
2022/02/03 20:34:32;;;;;;;5.55;3.42;;;8.80;99.90;;;;;;4959245;28;20134;-79
2022/02/03 20:36:58;;;;;;;4.95;2.97;;;8.70;99.90;;;;;;4958571;28;20058;-78
2022/02/03 20:39:23;;;;;;;5.18;2.70;;;8.70;99.90;;;;;;4958812;28;20027;-79
2022/02/03 20:41:49;;;;;;;6.20;2.85;;;8.70;99.90;;;;;;4958737;28;20023;-80
2022/02/03 20:44:15;;;;;;;5.93;2.72;;;8.70;99.90;;;;;;4976664;28;20044;-80
2022/02/03 20:46:40;;;;;;;4.35;2.83;;;8.60;99.90;;;;;;4975968;28;20101;-78
2022/02/03 20:49:06;;;;;;;5.88;2.55;;;8.70;99.90;;;;;;4958088;28;20092;-78
2022/02/03 20:51:32;;;;;;;5.75;2.47;;;8.60;99.90;;;;;;4958939;28;20038;-78
2022/02/03 20:53:57;;;;;;;4.28;2.30;;;8.70;99.90;;;;;;4958234;28;20185;-78
2022/02/03 20:56:23;;;;;;;3.80;2.22;;;8.60;99.90;;;;;;4958118;28;20034;-80
2022/02/03 20:58:50;;;;;;;5.68;2.30;;;8.60;99.90;;;;;;4958202;28;20121;-79
2022/02/03 21:01:25;;;;;;;3.35;2.33;;;8.60;99.90;;;;;;4958229;28;20022;-78
2022/02/03 21:03:51;;;;;;;3.92;2.67;;;8.70;99.90;;;;;;4954446;28;20062;-79
2022/02/03 21:06:18;;;;;;;3.80;2.50;;;8.70;99.90;;;;;;4955332;28;20032;-78
2022/02/03 21:08:47;;;;;;;4.25;2.38;;;8.70;99.90;;;;;;4956334;28;20464;-79
2022/02/03 21:11:14;;;;;;;4.60;2.53;;;8.70;99.90;;;;;;4964910;28;20027;-79
2022/02/03 21:13:40;;;;;;;5.30;2.38;;;8.70;99.90;;;;;;4955433;28;20448;-78
2022/02/03 21:16:06;;;;;;;4.50;2.45;;;8.70;99.90;;;;;;4954378;29;20024;-77
2022/02/03 21:18:37;;;;;;;3.45;2.25;;;8.70;99.90;;;;;;4954711;28;20077;-77
2022/02/03 21:21:03;;;;;;;4.30;2.53;;;8.70;99.90;;;;;;4954301;28;20050;-78
2022/02/03 21:23:29;;;;;;;5.70;2.55;;;8.60;99.90;;;;;;4954586;29;20047;-77
2022/02/03 21:25:57;;;;;;;4.75;2.63;;;8.60;99.90;;;;;;4954426;29;20024;-77
2022/02/03 21:28:27;;;;;;;4.70;3.22;;;8.60;99.90;;;;;;4970886;28;20404;-76
2022/02/03 21:30:54;;;;;;;8.48;2.90;;;8.60;99.90;;;;;;4952576;29;20031;-77
2022/02/03 21:33:27;;;;;;;4.00;2.67;;;8.60;99.90;;;;;;4965653;28;20031;-78
2022/02/03 21:35:58;;;;;;;3.42;2.67;;;8.60;99.90;;;;;;4970627;28;20459;-77
2022/02/03 21:38:25;;;;;;;4.80;2.80;;;8.60;99.90;;;;;;4953961;28;20043;-78
2022/02/03 21:40:50;;;;;;;4.88;2.80;;;8.60;99.90;;;;;;4954966;28;20476;-77
2022/02/03 21:43:16;;;;;;;3.15;2.58;;;8.60;99.90;;;;;;4955928;28;20023;-77
2022/02/03 21:45:42;;;;;;;5.90;3.03;;;8.70;99.90;;;;;;4955290;28;20520;-77
2022/02/03 21:48:08;;;;;;;4.10;2.83;;;8.60;99.90;;;;;;4954831;28;20476;-76
2022/02/03 21:50:38;;;;;;;4.88;2.70;;;8.60;99.90;;;;;;4955589;28;20035;-77
2022/02/03 21:53:14;;;;;;;5.13;2.55;;;8.50;99.90;;;;;;4969575;28;20031;-77
2022/02/03 21:55:40;;;;;;;6.78;2.85;;;8.60;99.90;;;;;;4971163;28;20031;-78
2022/02/03 21:58:05;;;;;;;5.60;3.03;;;8.50;99.90;;;;;;4954412;28;20135;-80
2022/02/03 22:00:31;;;;;;;5.88;2.90;;;8.50;99.90;;;;;;4970693;28;20086;-79
2022/02/03 22:02:57;;;;;;;4.20;2.72;;;8.50;99.90;;;;;;4969689;28;20051;-77
2022/02/03 22:05:22;;;;;;;4.53;2.67;;;8.50;99.90;;;;;;4970448;28;20039;-77
2022/02/03 22:07:48;;;;;;;8.95;3.05;;;8.50;99.90;;;;;;4961657;28;20039;-77
2022/02/03 22:10:18;;;;;;;6.82;2.95;;;8.60;99.90;;;;;;4948720;29;20062;-77
2022/02/03 22:12:45;;;;;;;5.13;2.90;;;8.50;99.90;;;;;;4970748;28;20027;-76
2022/02/03 22:15:11;;;;;;;6.15;2.85;;;8.50;99.90;;;;;;4970181;28;20046;-76
2022/02/03 22:17:37;;;;;;;3.83;2.65;;;8.60;99.90;;;;;;4953550;29;20484;-76
2022/02/03 22:20:08;;;;;;;3.67;2.72;;;8.50;99.90;;;;;;4953916;28;20027;-77
2022/02/03 22:22:46;;;;;;;4.88;2.53;;;8.50;99.90;;;;;;4969882;28;20110;-77
2022/02/03 22:25:31;;;;;;;4.78;2.75;;;8.60;99.90;;;;;;4953968;29;20039;-77
2022/02/03 22:39:05;;;;;;;3.53;2.22;;;8.60;99.90;;;;;;4954080;29;20085;-76
2022/02/03 22:44:30;;;;;;;3.85;2.65;;;8.50;99.90;;;;;;4953096;29;20157;-75
2022/02/03 22:49:22;;;;;;;4.75;2.38;;;8.40;99.90;;;;;;4954456;29;20054;-74
2022/02/03 22:51:47;;;;;;;5.43;2.70;;;8.40;99.90;;;;;;4952750;28;20019;-75
2022/02/03 22:54:13;;;;;;;5.15;2.60;;;8.40;99.90;;;;;;4952574;29;20134;-74
2022/02/03 22:56:39;;;;;;;3.17;2.17;;;8.40;99.90;;;;;;4955258;28;20456;-73
2022/02/03 22:59:46;;;;;;;4.25;2.55;;;8.40;99.90;;;;;;4956375;29;20628;-74
2022/02/03 23:01:56;;;;;;;4.90;2.00;;;8.40;99.90;;;;;;4960104;28;20051;-74
2022/02/03 23:04:22;;;;;;;3.55;1.92;;;8.40;99.90;;;;;;4977192;28;20114;-74
2022/02/03 23:06:54;;;;;;;4.25;2.10;;;8.50;99.90;;;;;;4976895;28;20050;-74
2022/02/03 23:09:38;;;;;;;3.10;1.98;;;8.50;99.90;;;;;;4960427;28;20034;-75
2022/02/03 23:12:12;;;;;;;4.18;1.92;;;8.40;99.90;;;;;;4958786;28;20063;-74
2022/02/03 23:15:01;;;;;;;4.63;2.35;;;8.30;99.90;;;;;;4974134;28;20023;-77
2022/02/03 23:20:28;;;;;;;3.85;1.90;;;8.30;99.90;;;;;;4918485;29;20028;-78
2022/02/03 23:22:54;;;;;;;4.15;2.40;;;8.20;99.90;;;;;;4953090;28;20070;-79
2022/02/03 23:25:21;;;;;;;4.68;2.33;;;8.20;99.90;;;;;;4960803;28;20058;-77
2022/02/03 23:30:22;;;;;;;5.45;2.40;;;8.30;99.90;;;;;;4977843;28;20039;-77
2022/02/03 23:32:50;;;;;;;3.35;1.73;;;8.20;99.90;;;;;;4960024;28;20027;-80
2022/02/03 23:35:23;;;;;;;9.65;3.75;;;8.20;99.90;;;;;;4961858;28;20037;-83
2022/02/03 23:37:58;;;;;;;2.72;1.67;;;8.20;99.90;;;;;;4960194;28;20086;-78
2022/02/03 23:40:57;;;;;;;2.63;1.75;;;8.20;99.90;;;;;;4976622;28;20023;-78
